createdAt,value
2022-08-28T00:00:31.340Z,5.03
2022-08-28T00:03:18.580Z,4.97
2022-08-28T00:06:06.403Z,5.03
2022-08-28T00:08:53.536Z,5.10
2022-08-28T00:11:40.933Z,4.73
2022-08-28T00:14:28.329Z,5.30
2022-08-28T00:17:15.297Z,5.00
2022-08-28T00:20:03.106Z,5.33
2022-08-28T00:22:50.486Z,5.43
2022-08-28T00:25:37.893Z,5.20
2022-08-28T00:28:25.073Z,6.37
2022-08-28T00:31:13.372Z,4.73
2022-08-28T00:34:02.743Z,5.87
2022-08-28T00:36:49.856Z,5.83
2022-08-28T00:39:38.511Z,5.80
2022-08-28T00:42:25.663Z,5.70
2022-08-28T00:45:16.629Z,5.37
2022-08-28T00:48:03.985Z,6.27
2022-08-28T00:51:09.481Z,5.40
2022-08-28T00:53:58.950Z,6.13
2022-08-28T00:56:47.874Z,4.93
2022-08-28T00:59:35.130Z,5.70
2022-08-28T01:02:22.418Z,6.13
2022-08-28T01:05:10.176Z,6.30
2022-08-28T01:07:58.944Z,5.57
2022-08-28T01:10:52.314Z,5.87
2022-08-28T01:13:46.787Z,6.03
2022-08-28T01:16:35.184Z,5.47
2022-08-28T01:19:38.109Z,5.60
2022-08-28T01:22:44.535Z,5.47
2022-08-28T01:25:35.040Z,5.80
2022-08-28T01:28:22.169Z,5.70
2022-08-28T01:31:11.665Z,5.30
2022-08-28T01:33:59.539Z,6.63
2022-08-28T01:36:48.537Z,5.70
2022-08-28T01:39:35.727Z,6.30
2022-08-28T01:42:26.042Z,6.47
2022-08-28T01:45:20.669Z,6.13
2022-08-28T01:48:08.974Z,6.20
2022-08-28T01:50:56.222Z,6.27
2022-08-28T01:53:45.411Z,5.83
2022-08-28T01:56:34.321Z,6.40
2022-08-28T01:59:21.894Z,5.73
2022-08-28T02:02:10.934Z,6.73
2022-08-28T02:04:58.250Z,6.23
2022-08-28T02:07:45.885Z,6.63
2022-08-28T02:10:35.063Z,6.30
2022-08-28T02:13:22.435Z,6.67
2022-08-28T02:16:12.894Z,6.87
2022-08-28T02:19:00.738Z,6.43
2022-08-28T02:21:47.905Z,6.00
2022-08-28T02:24:35.829Z,6.00
2022-08-28T02:27:24.379Z,6.50
2022-08-28T02:30:13.377Z,6.67
2022-08-28T02:33:00.376Z,6.20
2022-08-28T02:35:47.712Z,6.47
2022-08-28T02:38:34.981Z,6.07
2022-08-28T02:41:22.218Z,6.57
2022-08-28T02:44:10.153Z,6.30
2022-08-28T02:46:57.409Z,6.40
2022-08-28T02:49:44.571Z,6.30
2022-08-28T02:52:31.709Z,6.63
2022-08-28T02:55:19.918Z,6.50
2022-08-28T02:58:09.731Z,6.07
2022-08-28T03:00:57.998Z,6.17
2022-08-28T03:03:46.231Z,6.63
2022-08-28T03:06:33.994Z,6.27
2022-08-28T03:09:20.946Z,6.90
2022-08-28T03:12:09.749Z,6.40
2022-08-28T03:14:56.969Z,6.73
2022-08-28T03:17:44.027Z,6.50
2022-08-28T03:20:31.025Z,7.13
2022-08-28T03:23:27.098Z,6.23
2022-08-28T03:26:18.918Z,6.57
2022-08-28T03:29:06.081Z,6.13
2022-08-28T03:31:53.173Z,6.40
2022-08-28T03:34:41.226Z,6.30
2022-08-28T03:37:28.225Z,6.63
2022-08-28T03:40:16.062Z,6.07
2022-08-28T03:43:03.074Z,5.83
2022-08-28T03:45:58.228Z,6.10
2022-08-28T03:48:46.229Z,5.80
2022-08-28T03:51:34.772Z,6.13
2022-08-28T03:54:21.840Z,5.40
2022-08-28T03:57:08.987Z,6.30
2022-08-28T03:59:56.169Z,5.80
2022-08-28T04:02:44.412Z,5.90
2022-08-28T04:05:31.441Z,6.23
2022-08-28T04:08:20.125Z,6.23
2022-08-28T04:11:07.289Z,6.13
2022-08-28T04:13:54.302Z,5.50
2022-08-28T04:16:41.656Z,5.43
2022-08-28T04:19:29.873Z,5.90
2022-08-28T04:22:16.962Z,5.13
2022-08-28T04:25:06.914Z,5.83
2022-08-28T04:27:53.888Z,5.77
2022-08-28T04:30:41.726Z,5.20
2022-08-28T04:33:29.368Z,5.73
2022-08-28T04:36:18.366Z,6.10
2022-08-28T04:39:08.705Z,5.07
2022-08-28T04:41:55.922Z,5.73
2022-08-28T04:44:42.977Z,5.60
2022-08-28T04:47:31.094Z,5.23
2022-08-28T04:50:18.239Z,5.60
2022-08-28T04:53:05.165Z,5.33
2022-08-28T04:55:54.700Z,5.90
2022-08-28T04:58:43.885Z,4.97
2022-08-28T05:01:30.947Z,5.47
2022-08-28T05:04:19.781Z,4.83
2022-08-28T05:07:06.969Z,4.70
2022-08-28T05:09:54.704Z,5.40
2022-08-28T05:12:41.755Z,4.83
2022-08-28T05:15:29.084Z,6.07
2022-08-28T05:18:18.249Z,4.90
2022-08-28T05:21:13.913Z,5.00
2022-08-28T05:24:01.510Z,4.33
2022-08-28T05:26:48.815Z,4.93
2022-08-28T05:29:35.917Z,4.17
2022-08-28T05:32:23.072Z,4.43
2022-08-28T05:35:10.125Z,4.77
2022-08-28T05:37:57.240Z,4.97
2022-08-28T05:40:47.894Z,4.80
2022-08-28T05:43:35.597Z,4.90
2022-08-28T05:46:23.243Z,4.40
2022-08-28T05:49:10.672Z,5.13
2022-08-28T05:51:57.710Z,4.47
2022-08-28T05:54:44.973Z,4.30
2022-08-28T05:57:32.040Z,4.20
2022-08-28T06:00:19.075Z,4.50
2022-08-28T06:03:06.106Z,4.27
2022-08-28T06:05:56.160Z,4.67
2022-08-28T06:08:58.121Z,3.90
2022-08-28T06:11:46.746Z,3.80
2022-08-28T06:14:34.478Z,3.97
2022-08-28T06:17:23.451Z,4.20
2022-08-28T06:20:11.428Z,4.07
2022-08-28T06:22:58.990Z,3.83
2022-08-28T06:25:49.158Z,3.90
2022-08-28T06:28:36.313Z,3.70
2022-08-28T06:31:26.456Z,3.30
2022-08-28T06:34:15.204Z,3.87
2022-08-28T06:37:02.214Z,3.53
2022-08-28T06:39:49.443Z,3.70
2022-08-28T06:42:36.693Z,3.67
2022-08-28T06:45:23.670Z,3.40
2022-08-28T06:48:13.994Z,3.73
2022-08-28T06:51:01.146Z,3.83
2022-08-28T06:53:48.313Z,3.37
2022-08-28T06:56:36.121Z,3.87
2022-08-28T06:59:23.256Z,3.30
2022-08-28T07:02:10.420Z,3.10
2022-08-28T07:04:57.676Z,3.50
2022-08-28T07:07:44.856Z,2.77
2022-08-28T07:10:32.311Z,3.60
2022-08-28T07:13:20.759Z,3.30
2022-08-28T07:16:08.700Z,3.33
2022-08-28T07:18:57.234Z,3.70
2022-08-28T07:21:45.862Z,2.90
2022-08-28T07:24:32.866Z,3.30
2022-08-28T07:27:21.499Z,2.80
2022-08-28T07:30:10.183Z,3.03
2022-08-28T07:32:57.387Z,2.97
2022-08-28T07:35:44.562Z,3.13
2022-08-28T07:38:31.606Z,2.90
2022-08-28T07:41:22.428Z,3.40
2022-08-28T07:44:30.245Z,3.40
2022-08-28T07:47:18.931Z,2.53
2022-08-28T07:50:06.178Z,2.60
2022-08-28T07:52:53.377Z,2.93
2022-08-28T07:55:40.674Z,3.30
2022-08-28T07:58:27.825Z,3.07
2022-08-28T08:01:17.533Z,2.43
2022-08-28T08:04:07.660Z,2.57
2022-08-28T08:06:57.998Z,3.17
2022-08-28T08:09:46.623Z,3.10
2022-08-28T08:12:34.728Z,3.20
2022-08-28T08:15:22.193Z,2.63
2022-08-28T08:18:09.240Z,2.97
2022-08-28T08:20:56.388Z,2.63
2022-08-28T08:23:43.661Z,2.30
2022-08-28T08:26:30.701Z,2.67
2022-08-28T08:29:17.997Z,3.20
2022-08-28T08:32:08.675Z,2.80
2022-08-28T08:34:56.061Z,2.77
2022-08-28T08:37:43.317Z,2.77
2022-08-28T08:40:30.583Z,2.93
2022-08-28T08:43:20.154Z,2.83
2022-08-28T08:46:09.262Z,2.53
2022-08-28T08:49:02.981Z,2.87
2022-08-28T08:52:18.861Z,2.60
2022-08-28T08:55:35.311Z,2.53
2022-08-28T08:58:38.361Z,2.70
2022-08-28T09:01:48.963Z,2.90
2022-08-28T09:04:46.477Z,2.90
2022-08-28T09:07:57.210Z,2.67
2022-08-28T09:10:53.950Z,2.83
2022-08-28T09:14:02.946Z,2.70
2022-08-28T09:16:50.590Z,2.63
2022-08-28T09:19:37.644Z,2.70
2022-08-28T09:22:24.611Z,2.80
2022-08-28T09:25:33.194Z,2.70
2022-08-28T09:28:32.540Z,2.87
2022-08-28T09:31:36.530Z,2.53
2022-08-28T09:34:33.383Z,2.40
2022-08-28T09:37:27.652Z,2.70
2022-08-28T09:41:02.461Z,3.00
2022-08-28T09:43:49.509Z,2.50
2022-08-28T09:46:39.238Z,2.60
2022-08-28T09:49:29.707Z,2.67
2022-08-28T09:52:24.965Z,2.70
2022-08-28T09:55:22.318Z,3.30
2022-08-28T09:58:09.869Z,2.80
2022-08-28T10:01:20.827Z,2.63
2022-08-28T10:04:38.586Z,2.70
2022-08-28T10:07:46.299Z,3.33
2022-08-28T10:10:44.577Z,3.00
2022-08-28T10:13:41.978Z,2.80
2022-08-28T10:16:51.010Z,3.00
2022-08-28T10:19:58.690Z,2.63
2022-08-28T10:23:08.665Z,2.97
2022-08-28T10:26:26.361Z,2.77
2022-08-28T10:29:30.240Z,2.90
2022-08-28T10:32:42.902Z,2.80
2022-08-28T10:35:45.693Z,2.40
2022-08-28T10:38:40.365Z,2.43
2022-08-28T10:41:41.214Z,2.37
2022-08-28T10:44:54.931Z,2.27
2022-08-28T10:47:48.523Z,2.23
2022-08-28T10:50:38.078Z,2.00
2022-08-28T10:53:48.638Z,2.40
2022-08-28T10:56:46.413Z,2.43
2022-08-28T10:59:48.629Z,2.53
2022-08-28T11:02:37.016Z,2.73
2022-08-28T11:05:29.790Z,2.47
2022-08-28T11:08:35.684Z,2.73
2022-08-28T11:11:46.417Z,2.63
2022-08-28T11:14:47.841Z,2.42
2022-08-28T11:17:41.973Z,2.40
2022-08-28T11:20:30.282Z,2.55
2022-08-28T11:23:23.589Z,2.95
2022-08-28T11:26:14.632Z,2.35
2022-08-28T11:29:04.483Z,2.53
2022-08-28T11:32:34.093Z,2.25
2022-08-28T11:35:40.456Z,2.20
2022-08-28T11:38:42.595Z,2.30
2022-08-28T11:42:00.092Z,2.20
2022-08-28T11:44:49.304Z,2.47
2022-08-28T11:47:44.131Z,2.00
2022-08-28T11:50:35.422Z,2.60
2022-08-28T11:53:53.803Z,2.27
2022-08-28T11:56:54.095Z,2.40
2022-08-28T12:00:00.502Z,2.20
2022-08-28T12:03:19.029Z,2.40
2022-08-28T12:06:09.761Z,2.67
2022-08-28T12:09:03.384Z,1.93
2022-08-28T12:12:00.136Z,2.30
2022-08-28T12:14:47.406Z,2.13
2022-08-28T12:17:46.627Z,2.38
2022-08-28T12:20:52.391Z,2.30
2022-08-28T12:23:44.429Z,2.20
2022-08-28T12:26:40.111Z,2.57
2022-08-28T12:29:44.179Z,2.40
2022-08-28T12:32:49.596Z,2.40
2022-08-28T12:35:37.105Z,2.50
2022-08-28T12:38:24.965Z,2.17
2022-08-28T12:41:20.915Z,2.10
2022-08-28T12:44:12.279Z,2.10
2022-08-28T12:46:59.770Z,2.17
2022-08-28T12:49:47.316Z,2.05
2022-08-28T12:52:35.339Z,2.10
2022-08-28T12:55:24.537Z,2.40
2022-08-28T12:58:14.200Z,2.25
2022-08-28T13:01:23.338Z,2.55
2022-08-28T13:04:32.745Z,2.58
2022-08-28T13:07:56.468Z,2.40
2022-08-28T13:10:49.747Z,2.50
2022-08-28T13:13:47.461Z,2.30
2022-08-28T13:16:41.602Z,2.10
2022-08-28T13:19:32.526Z,2.23
2022-08-28T13:22:39.841Z,2.60
2022-08-28T13:25:31.166Z,2.17
2022-08-28T13:28:19.017Z,1.85
2022-08-28T13:31:06.746Z,2.10
2022-08-28T13:34:05.974Z,2.35
2022-08-28T13:36:59.922Z,2.58
2022-08-28T13:39:47.052Z,2.67
2022-08-28T13:42:34.147Z,1.88
2022-08-28T13:45:21.136Z,2.17
2022-08-28T13:48:09.273Z,1.93
2022-08-28T13:51:05.045Z,2.60
2022-08-28T13:53:56.473Z,2.38
2022-08-28T13:56:47.781Z,2.28
2022-08-28T13:59:35.369Z,1.90
2022-08-28T14:02:41.728Z,2.13
2022-08-28T14:05:29.262Z,2.25
2022-08-28T14:08:19.684Z,2.20
2022-08-28T14:11:07.951Z,2.13
2022-08-28T14:13:55.696Z,2.20
2022-08-28T14:16:45.513Z,2.20
2022-08-28T14:19:32.998Z,1.83
2022-08-28T14:22:20.083Z,2.53
2022-08-28T14:25:09.527Z,2.05
2022-08-28T14:27:56.950Z,2.13
2022-08-28T14:30:45.933Z,2.00
2022-08-28T14:33:40.278Z,2.42
2022-08-28T14:39:34.147Z,2.50
2022-08-28T14:42:21.974Z,2.10
2022-08-28T14:45:09.591Z,2.03
2022-08-28T14:48:07.307Z,2.10
2022-08-28T14:50:54.929Z,2.27
2022-08-28T14:53:45.951Z,2.27
2022-08-28T14:56:47.843Z,2.00
2022-08-28T14:59:35.123Z,2.15
2022-08-28T15:02:26.757Z,1.85
2022-08-28T15:05:23.251Z,2.17
2022-08-28T15:11:29.100Z,1.97
2022-08-28T15:14:22.921Z,2.13
2022-08-28T15:17:09.993Z,2.10
2022-08-28T15:19:59.216Z,2.00
2022-08-28T15:22:46.533Z,2.13
2022-08-28T15:25:33.546Z,2.10
2022-08-28T15:28:20.714Z,1.87
2022-08-28T15:31:10.141Z,2.13
2022-08-28T15:33:57.574Z,1.90
2022-08-28T15:36:49.150Z,1.93
2022-08-28T15:40:01.539Z,2.30
2022-08-28T15:42:48.564Z,2.20
2022-08-28T15:45:40.377Z,2.10
2022-08-28T15:48:27.414Z,2.33
2022-08-28T15:51:15.613Z,2.50
2022-08-28T15:54:02.966Z,2.50
2022-08-28T15:56:52.793Z,2.30
2022-08-28T15:59:48.757Z,2.67
2022-08-28T16:02:38.069Z,2.30
2022-08-28T16:05:28.049Z,1.90
2022-08-28T16:08:18.522Z,2.23
2022-08-28T16:11:05.773Z,2.47
2022-08-28T16:13:53.076Z,2.50
2022-08-28T16:16:40.279Z,2.30
2022-08-28T16:19:33.556Z,2.37
2022-08-28T16:22:20.676Z,2.53
2022-08-28T16:25:08.498Z,2.20
2022-08-28T16:27:55.536Z,2.90
2022-08-28T16:30:43.738Z,2.60
2022-08-28T16:33:31.374Z,2.53
2022-08-28T16:36:19.429Z,2.60
2022-08-28T16:39:11.720Z,2.20
2022-08-28T16:42:00.119Z,2.10
2022-08-28T16:44:47.647Z,2.50
2022-08-28T16:47:36.698Z,2.30
2022-08-28T16:50:24.716Z,2.70
2022-08-28T16:53:12.882Z,2.67
2022-08-28T16:56:01.272Z,2.77
2022-08-28T16:58:48.940Z,2.80
2022-08-28T17:01:40.856Z,2.40
2022-08-28T17:04:29.586Z,2.40
2022-08-28T17:07:16.618Z,2.50
2022-08-28T17:10:04.849Z,2.80
2022-08-28T17:12:52.230Z,3.03
2022-08-28T17:15:39.606Z,2.70
2022-08-28T17:18:26.763Z,3.07
2022-08-28T17:21:32.281Z,2.73
2022-08-28T17:24:19.382Z,2.97
2022-08-28T17:27:07.469Z,2.70
2022-08-28T17:29:54.749Z,2.70
2022-08-28T17:32:41.821Z,2.40
2022-08-28T17:35:28.800Z,2.40
2022-08-28T17:38:15.790Z,2.80
2022-08-28T17:41:06.381Z,2.87
2022-08-28T17:43:53.398Z,2.80
2022-08-28T17:46:40.524Z,3.60
2022-08-28T17:49:27.599Z,3.50
2022-08-28T17:52:14.679Z,3.43
2022-08-28T17:55:01.801Z,3.50
2022-08-28T17:57:49.186Z,3.40
2022-08-28T18:00:36.613Z,3.50
2022-08-28T18:03:23.605Z,3.17
2022-08-28T18:06:10.638Z,3.63
2022-08-28T18:08:58.646Z,4.20
2022-08-28T18:11:45.814Z,3.53
2022-08-28T18:14:32.842Z,4.40
2022-08-28T18:17:20.001Z,4.10
2022-08-28T18:20:09.627Z,3.27
2022-08-28T18:22:56.831Z,4.30
2022-08-28T18:25:50.810Z,3.97
2022-08-28T18:28:38.334Z,3.97
2022-08-28T18:31:25.876Z,3.50
2022-08-28T18:34:12.961Z,3.83
2022-08-28T18:37:00.978Z,4.30
2022-08-28T18:39:47.942Z,4.97
2022-08-28T18:42:39.962Z,4.50
2022-08-28T18:45:27.042Z,4.53
2022-08-28T18:48:14.161Z,4.33
2022-08-28T18:51:01.824Z,4.70
2022-08-28T18:53:49.234Z,4.90
2022-08-28T18:56:38.236Z,4.40
2022-08-28T18:59:25.825Z,4.93
2022-08-28T19:02:13.015Z,5.17
2022-08-28T19:05:00.170Z,4.70
2022-08-28T19:07:47.709Z,4.37
2022-08-28T19:10:36.983Z,4.70
2022-08-28T19:13:23.953Z,4.57
2022-08-28T19:16:17.218Z,5.07
2022-08-28T19:19:04.657Z,4.67
2022-08-28T19:21:52.112Z,4.83
2022-08-28T19:24:39.433Z,4.83
2022-08-28T19:27:26.453Z,5.17
2022-08-28T19:30:16.520Z,5.00
2022-08-28T19:33:05.069Z,5.20
2022-08-28T19:35:52.063Z,4.60
2022-08-28T19:38:39.378Z,4.17
2022-08-28T19:41:27.848Z,5.03
2022-08-28T19:44:15.254Z,5.13
2022-08-28T19:47:02.330Z,4.43
2022-08-28T19:49:54.802Z,4.50
2022-08-28T19:52:45.274Z,4.53
2022-08-28T19:55:32.898Z,4.50
2022-08-28T19:58:19.866Z,4.40
2022-08-28T20:01:07.486Z,4.53
2022-08-28T20:03:54.801Z,3.93
2022-08-28T20:06:42.329Z,4.03
2022-08-28T20:09:29.706Z,3.80
2022-08-28T20:12:17.220Z,4.40
2022-08-28T20:15:08.789Z,3.90
2022-08-28T20:18:00.360Z,4.40
2022-08-28T20:20:49.637Z,4.33
2022-08-28T20:23:37.128Z,4.20
2022-08-28T20:26:24.129Z,4.50
2022-08-28T20:29:16.678Z,4.30
2022-08-28T20:32:05.747Z,4.13
2022-08-28T20:34:52.960Z,4.10
2022-08-28T20:37:45.139Z,4.10
2022-08-28T20:40:33.050Z,4.23
2022-08-28T20:43:20.086Z,4.20
2022-08-28T20:46:07.915Z,4.07
2022-08-28T20:48:55.115Z,4.27
2022-08-28T20:51:53.444Z,3.80
2022-08-28T20:54:42.042Z,3.60
2022-08-28T20:57:29.123Z,4.17
2022-08-28T21:00:16.154Z,4.50
2022-08-28T21:03:03.146Z,4.60
2022-08-28T21:05:50.271Z,4.40
2022-08-28T21:08:37.301Z,5.00
2022-08-28T21:11:25.486Z,4.13
2022-08-28T21:14:13.434Z,4.60
2022-08-28T21:17:00.573Z,4.80
2022-08-28T21:19:50.325Z,4.57
2022-08-28T21:22:37.478Z,5.20
2022-08-28T21:25:25.125Z,4.30
2022-08-28T21:28:12.122Z,4.43
2022-08-28T21:30:59.293Z,5.33
2022-08-28T21:33:46.514Z,4.87
2022-08-28T21:36:33.710Z,4.37
2022-08-28T21:39:21.034Z,4.80
2022-08-28T21:42:08.226Z,4.77
2022-08-28T21:44:55.570Z,4.93
2022-08-28T21:47:43.337Z,4.60
2022-08-28T21:50:30.347Z,5.00
2022-08-28T21:53:19.806Z,5.20
2022-08-28T21:56:07.949Z,5.03
2022-08-28T21:58:56.870Z,4.53
2022-08-28T22:01:44.172Z,4.90
2022-08-28T22:04:31.407Z,5.10
2022-08-28T22:07:18.976Z,4.97
2022-08-28T22:10:07.394Z,4.20
2022-08-28T22:12:54.395Z,4.73
2022-08-28T22:15:44.070Z,4.73
2022-08-28T22:18:32.048Z,4.20
2022-08-28T22:21:44.423Z,4.47
2022-08-28T22:24:31.578Z,4.17
2022-08-28T22:27:18.763Z,4.30
2022-08-28T22:30:06.209Z,4.70
2022-08-28T22:32:53.498Z,4.63
2022-08-28T22:35:40.644Z,4.70
2022-08-28T22:38:28.193Z,4.30
2022-08-28T22:41:15.598Z,4.17
2022-08-28T22:44:03.102Z,4.40
2022-08-28T22:46:50.187Z,4.30
2022-08-28T22:49:39.647Z,4.53
2022-08-28T22:52:27.091Z,4.00
2022-08-28T22:55:16.137Z,4.23
2022-08-28T22:58:03.366Z,4.20
2022-08-28T23:00:50.829Z,4.17
2022-08-28T23:03:38.126Z,3.97
2022-08-28T23:06:25.220Z,4.50
2022-08-28T23:09:12.298Z,4.30
2022-08-28T23:12:00.114Z,4.03
2022-08-28T23:14:48.836Z,4.90
2022-08-28T23:17:36.858Z,3.83
2022-08-28T23:20:24.078Z,4.10
2022-08-28T23:23:13.106Z,4.33
2022-08-28T23:26:00.189Z,4.33
2022-08-28T23:28:48.379Z,4.00
2022-08-28T23:31:35.936Z,4.10
2022-08-28T23:34:23.154Z,4.13
2022-08-28T23:37:10.141Z,4.10
2022-08-28T23:39:57.301Z,3.20
2022-08-28T23:42:45.595Z,4.00
2022-08-28T23:45:32.982Z,4.07
2022-08-28T23:48:20.346Z,4.23
2022-08-28T23:51:12.522Z,4.20
2022-08-28T23:54:00.192Z,4.33
2022-08-28T23:56:47.224Z,4.53
2022-08-28T23:59:34.638Z,4.60
